createdAt,value
2023-08-22T00:01:26.446Z,2.72
2023-08-22T00:03:58.143Z,2.97
2023-08-22T00:06:29.631Z,4.53
2023-08-22T00:08:56.675Z,3.13
2023-08-22T00:11:23.501Z,2.90
2023-08-22T00:13:50.354Z,2.85
2023-08-22T00:16:17.262Z,2.90
2023-08-22T00:18:44.164Z,3.08
2023-08-22T00:21:11.054Z,3.25
2023-08-22T00:23:39.202Z,2.95
2023-08-22T00:26:06.293Z,3.22
2023-08-22T00:28:32.984Z,3.00
2023-08-22T00:31:00.349Z,2.45
2023-08-22T00:33:27.193Z,2.17
2023-08-22T00:35:54.191Z,1.98
2023-08-22T00:38:20.856Z,2.33
2023-08-22T00:40:48.248Z,1.80
2023-08-22T00:43:15.068Z,2.33
2023-08-22T00:45:44.350Z,2.03
2023-08-22T00:48:29.639Z,2.00
2023-08-22T00:50:56.428Z,2.10
2023-08-22T00:53:25.353Z,1.70
2023-08-22T00:55:52.394Z,2.10
2023-08-22T00:58:19.815Z,1.98
2023-08-22T01:00:48.027Z,1.92
2023-08-22T01:03:19.415Z,2.30
2023-08-22T01:05:54.225Z,1.47
2023-08-22T01:08:28.844Z,1.70
2023-08-22T01:11:00.176Z,1.90
2023-08-22T01:13:34.534Z,1.95
2023-08-22T01:16:02.395Z,1.90
2023-08-22T01:18:30.230Z,3.33
2023-08-22T01:21:06.143Z,1.85
2023-08-22T01:23:34.215Z,2.13
2023-08-22T01:26:05.798Z,2.50
2023-08-22T01:28:46.439Z,2.95
2023-08-22T01:31:30.545Z,5.03
2023-08-22T01:34:14.762Z,2.67
2023-08-22T01:36:43.719Z,2.97
2023-08-22T01:39:12.351Z,3.78
2023-08-22T01:41:39.533Z,10.48
2023-08-22T01:44:06.338Z,6.30
2023-08-22T01:46:33.304Z,3.53
2023-08-22T01:49:00.305Z,6.38
2023-08-22T01:51:27.169Z,4.80
2023-08-22T01:53:53.903Z,3.80
2023-08-22T01:56:20.574Z,3.00
2023-08-22T01:58:47.352Z,2.40
2023-08-22T02:01:14.872Z,2.88
2023-08-22T02:03:43.170Z,2.55
2023-08-22T02:06:11.081Z,2.60
2023-08-22T02:08:39.585Z,2.57
2023-08-22T02:11:06.776Z,3.60
2023-08-22T02:13:33.739Z,2.85
2023-08-22T02:16:02.017Z,2.55
2023-08-22T02:18:29.028Z,2.55
2023-08-22T02:20:57.395Z,2.30
2023-08-22T02:23:24.641Z,2.58
2023-08-22T02:25:51.293Z,2.40
2023-08-22T02:28:18.201Z,2.08
2023-08-22T02:30:44.895Z,2.60
2023-08-22T02:33:11.747Z,2.03
2023-08-22T02:35:38.901Z,2.10
2023-08-22T02:38:06.073Z,2.22
2023-08-22T02:40:32.827Z,2.35
2023-08-22T02:42:59.886Z,2.30
2023-08-22T02:45:27.198Z,2.67
2023-08-22T02:47:54.711Z,2.45
2023-08-22T02:50:24.857Z,2.42
2023-08-22T02:52:52.446Z,2.45
2023-08-22T02:55:19.354Z,2.35
2023-08-22T02:57:46.397Z,2.23
2023-08-22T03:00:14.349Z,2.00
2023-08-22T03:02:41.355Z,2.17
2023-08-22T03:05:12.989Z,1.92
2023-08-22T03:07:40.499Z,3.10
2023-08-22T03:10:11.501Z,4.43
2023-08-22T03:12:38.334Z,2.05
2023-08-22T03:15:05.838Z,2.22
2023-08-22T03:17:33.209Z,2.47
2023-08-22T03:20:00.925Z,2.53
2023-08-22T03:22:27.905Z,2.20
2023-08-22T03:24:54.804Z,2.47
2023-08-22T03:27:21.936Z,2.97
2023-08-22T03:29:48.576Z,1.77
2023-08-22T03:32:15.409Z,2.25
2023-08-22T03:34:43.330Z,2.33
2023-08-22T03:37:09.969Z,2.40
2023-08-22T03:39:36.797Z,2.20
2023-08-22T03:42:03.536Z,2.00
2023-08-22T03:44:31.699Z,2.40
2023-08-22T03:46:58.697Z,1.67
2023-08-22T03:49:25.529Z,1.80
2023-08-22T03:51:52.368Z,2.13
2023-08-22T03:54:19.423Z,1.70
2023-08-22T03:56:46.203Z,3.35
2023-08-22T03:59:15.967Z,2.07
2023-08-22T04:01:42.812Z,2.50
2023-08-22T04:04:09.829Z,2.00
2023-08-22T04:06:36.568Z,2.65
2023-08-22T04:09:03.855Z,3.00
2023-08-22T04:11:30.664Z,2.50
2023-08-22T04:13:57.558Z,2.25
2023-08-22T04:16:24.543Z,2.78
2023-08-22T04:18:52.443Z,2.80
2023-08-22T04:21:19.286Z,2.50
2023-08-22T04:23:46.039Z,3.00
2023-08-22T04:26:12.743Z,2.53
2023-08-22T04:28:40.289Z,2.90
2023-08-22T04:31:07.666Z,2.83
2023-08-22T04:33:34.516Z,2.35
2023-08-22T04:36:01.358Z,3.10
2023-08-22T04:38:28.084Z,3.13
2023-08-22T04:40:55.164Z,2.75
2023-08-22T04:43:22.266Z,4.10
2023-08-22T04:45:52.747Z,15.30
2023-08-22T04:48:22.325Z,6.17
2023-08-22T04:50:49.868Z,3.08
2023-08-22T04:53:16.764Z,3.55
2023-08-22T04:55:46.640Z,3.78
2023-08-22T04:58:13.940Z,3.40
2023-08-22T05:00:40.836Z,3.27
2023-08-22T05:03:07.833Z,3.20
2023-08-22T05:05:34.756Z,2.70
2023-08-22T05:08:11.383Z,3.15
2023-08-22T05:10:38.364Z,2.80
2023-08-22T05:13:05.937Z,3.53
2023-08-22T05:15:32.806Z,3.90
2023-08-22T05:17:59.752Z,3.50
2023-08-22T05:20:27.703Z,2.88
2023-08-22T05:22:54.840Z,4.18
2023-08-22T05:25:21.888Z,2.80
2023-08-22T05:27:49.511Z,3.10
2023-08-22T05:30:16.286Z,3.08
2023-08-22T05:32:43.659Z,5.40
2023-08-22T05:35:12.095Z,3.75
2023-08-22T05:37:39.429Z,3.27
2023-08-22T05:40:12.276Z,3.70
2023-08-22T05:42:41.155Z,3.55
2023-08-22T05:45:09.092Z,4.47
2023-08-22T05:47:36.157Z,4.28
2023-08-22T05:50:06.393Z,4.53
2023-08-22T05:52:33.166Z,4.97
2023-08-22T05:54:59.876Z,3.50
2023-08-22T05:57:28.973Z,4.43
2023-08-22T05:59:56.097Z,4.90
2023-08-22T06:02:22.831Z,3.37
2023-08-22T06:04:49.950Z,4.88
2023-08-22T06:07:17.185Z,4.97
2023-08-22T06:09:44.966Z,4.07
2023-08-22T06:12:16.408Z,3.70
2023-08-22T06:14:43.394Z,4.67
2023-08-22T06:17:10.804Z,4.82
2023-08-22T06:19:43.029Z,4.60
2023-08-22T06:22:10.231Z,3.53
2023-08-22T06:24:37.429Z,5.28
2023-08-22T06:27:04.305Z,4.60
2023-08-22T06:29:33.268Z,7.35
2023-08-22T06:32:02.774Z,4.45
2023-08-22T06:34:34.364Z,4.07
2023-08-22T06:37:01.084Z,4.72
2023-08-22T06:39:29.513Z,4.43
2023-08-22T06:41:56.420Z,3.60
2023-08-22T06:44:23.313Z,4.05
2023-08-22T06:46:50.290Z,3.38
2023-08-22T06:49:17.422Z,3.75
2023-08-22T06:51:44.206Z,4.47
2023-08-22T06:54:13.921Z,3.28
2023-08-22T06:56:43.521Z,3.85
2023-08-22T06:59:49.913Z,3.55
2023-08-22T07:02:20.662Z,2.88
2023-08-22T07:04:58.946Z,2.87
2023-08-22T07:07:26.600Z,3.78
2023-08-22T07:09:53.391Z,3.08
2023-08-22T07:12:20.305Z,3.42
2023-08-22T07:14:54.279Z,2.88
2023-08-22T07:17:21.098Z,2.40
2023-08-22T07:19:47.826Z,1.80
2023-08-22T07:22:14.579Z,1.95
2023-08-22T07:24:44.629Z,1.55
2023-08-22T07:27:12.730Z,1.88
2023-08-22T07:29:39.627Z,1.80
2023-08-22T07:32:07.727Z,1.60
2023-08-22T07:34:34.708Z,2.03
2023-08-22T07:37:01.842Z,1.70
2023-08-22T07:39:29.409Z,1.98
2023-08-22T07:41:57.151Z,2.37
2023-08-22T07:44:25.622Z,1.80
2023-08-22T07:46:52.584Z,1.98
2023-08-22T07:49:22.181Z,2.20
2023-08-22T07:51:51.751Z,2.55
2023-08-22T07:54:19.158Z,2.20
2023-08-22T08:00:00.214Z,2.45
2023-08-22T08:02:41.783Z,2.35
2023-08-22T08:05:11.967Z,2.75
2023-08-22T08:07:39.954Z,2.50
2023-08-22T08:10:07.513Z,2.58
2023-08-22T08:13:12.529Z,2.38
2023-08-22T08:16:07.248Z,2.17
2023-08-22T08:18:35.213Z,2.67
2023-08-22T08:21:02.120Z,2.27
2023-08-22T08:23:31.483Z,1.90
2023-08-22T08:25:58.081Z,1.73
2023-08-22T08:28:37.141Z,1.50
2023-08-22T08:31:09.912Z,1.48
2023-08-22T08:33:36.996Z,1.37
2023-08-22T08:36:06.245Z,1.52
2023-08-22T08:38:48.158Z,1.60
2023-08-22T08:41:23.309Z,1.23
2023-08-22T08:43:50.932Z,1.60
2023-08-22T08:46:17.900Z,1.37
2023-08-22T08:48:46.800Z,1.25
2023-08-22T08:51:15.540Z,1.20
2023-08-22T08:53:42.949Z,1.27
2023-08-22T08:56:13.222Z,1.20
2023-08-22T08:58:40.340Z,1.37
2023-08-22T09:01:12.258Z,3.55
2023-08-22T09:03:39.609Z,1.40
2023-08-22T09:06:06.238Z,1.42
2023-08-22T09:08:33.275Z,1.20
2023-08-22T09:11:00.062Z,1.10
2023-08-22T09:13:38.829Z,1.23
2023-08-22T09:16:17.187Z,1.00
2023-08-22T09:18:44.400Z,1.17
2023-08-22T09:21:12.197Z,1.23
2023-08-22T09:23:41.781Z,1.10
2023-08-22T09:26:09.306Z,1.25
2023-08-22T09:28:41.049Z,1.13
2023-08-22T09:31:08.334Z,0.95
2023-08-22T09:33:49.398Z,1.10
2023-08-22T09:36:21.438Z,1.00
2023-08-22T09:38:55.908Z,1.30
2023-08-22T09:41:28.054Z,1.55
2023-08-22T09:43:58.275Z,1.40
2023-08-22T09:46:26.027Z,1.20
2023-08-22T09:48:54.019Z,1.10
2023-08-22T09:51:24.882Z,1.63
2023-08-22T09:54:01.279Z,1.80
2023-08-22T09:56:28.237Z,1.38
2023-08-22T09:58:55.284Z,1.17
2023-08-22T10:01:26.597Z,1.07
2023-08-22T10:03:55.889Z,1.10
2023-08-22T10:06:42.552Z,1.30
2023-08-22T10:09:13.295Z,1.15
2023-08-22T10:11:43.363Z,1.40
2023-08-22T10:14:19.975Z,1.00
2023-08-22T10:16:47.238Z,1.00
2023-08-22T10:19:15.518Z,1.00
2023-08-22T10:21:45.066Z,1.65
2023-08-22T10:24:27.441Z,1.58
2023-08-22T10:27:12.572Z,1.67
2023-08-22T10:29:48.725Z,1.60
2023-08-22T10:32:15.436Z,1.40
2023-08-22T10:34:42.017Z,1.27
2023-08-22T10:37:20.957Z,1.70
2023-08-22T10:39:53.901Z,1.23
2023-08-22T10:42:23.584Z,1.50
2023-08-22T10:44:52.094Z,1.30
2023-08-22T10:47:21.071Z,1.08
2023-08-22T10:52:39.883Z,2.23
2023-08-22T10:55:13.339Z,1.45
2023-08-22T10:57:43.219Z,1.48
2023-08-22T11:00:23.339Z,1.30
2023-08-22T11:02:52.772Z,2.30
2023-08-22T11:05:20.122Z,2.30
2023-08-22T11:07:50.054Z,1.65
2023-08-22T11:10:19.465Z,2.13
2023-08-22T11:12:47.450Z,2.58
2023-08-22T11:15:15.909Z,2.40
2023-08-22T11:17:44.727Z,2.53
2023-08-22T11:20:17.786Z,2.45
2023-08-22T11:22:46.014Z,2.25
2023-08-22T11:25:14.033Z,1.83
2023-08-22T11:27:41.843Z,1.95
2023-08-22T11:30:10.378Z,1.73
2023-08-22T11:32:40.266Z,2.08
2023-08-22T11:35:08.811Z,1.55
2023-08-22T11:37:41.953Z,1.90
2023-08-22T11:40:16.491Z,2.10
2023-08-22T11:42:43.942Z,2.33
2023-08-22T11:45:18.955Z,2.00
2023-08-22T11:47:50.846Z,1.90
2023-08-22T11:50:22.553Z,2.17
2023-08-22T11:52:54.830Z,2.58
2023-08-22T11:55:29.440Z,2.40
2023-08-22T11:57:58.112Z,2.20
2023-08-22T12:00:32.572Z,2.35
2023-08-22T12:03:01.362Z,2.10
2023-08-22T12:05:36.553Z,2.75
2023-08-22T12:08:12.615Z,2.27
2023-08-22T12:10:47.942Z,2.20
2023-08-22T12:13:17.633Z,2.20
2023-08-22T12:15:45.753Z,2.70
2023-08-22T12:18:13.464Z,2.60
2023-08-22T12:20:43.027Z,2.17
2023-08-22T12:23:14.530Z,2.30
2023-08-22T12:25:43.559Z,2.20
2023-08-22T12:28:11.573Z,2.33
2023-08-22T12:30:40.048Z,1.85
2023-08-22T12:33:10.435Z,1.73
2023-08-22T12:35:46.372Z,2.03
2023-08-22T12:38:13.067Z,2.40
2023-08-22T12:40:40.999Z,2.60
2023-08-22T12:43:07.570Z,2.47
2023-08-22T12:45:34.225Z,2.37
2023-08-22T12:48:01.050Z,1.90
2023-08-22T12:50:27.795Z,1.98
2023-08-22T12:52:54.546Z,2.20
2023-08-22T12:55:22.388Z,2.28
2023-08-22T12:57:52.213Z,2.10
2023-08-22T13:00:21.327Z,2.40
2023-08-22T13:02:48.397Z,2.30
2023-08-22T13:05:15.606Z,2.22
2023-08-22T13:07:45.976Z,1.73
2023-08-22T13:10:15.639Z,2.30
2023-08-22T13:12:42.437Z,1.73
2023-08-22T13:15:11.765Z,1.63
2023-08-22T13:17:38.634Z,1.42
2023-08-22T13:20:06.525Z,1.95
2023-08-22T13:22:33.264Z,1.20
2023-08-22T13:24:59.987Z,1.10
2023-08-22T13:27:26.888Z,1.33
2023-08-22T13:29:53.500Z,1.10
2023-08-22T13:32:20.224Z,1.10
2023-08-22T13:34:46.972Z,1.50
2023-08-22T13:37:13.847Z,1.30
2023-08-22T13:39:40.764Z,1.27
2023-08-22T13:42:07.968Z,1.33
2023-08-22T13:44:36.511Z,0.90
2023-08-22T13:47:03.264Z,0.90
2023-08-22T13:49:29.919Z,0.82
2023-08-22T13:51:58.217Z,1.10
2023-08-22T13:54:25.401Z,1.00
2023-08-22T13:56:57.206Z,1.08
2023-08-22T13:59:24.970Z,1.20
2023-08-22T14:01:51.668Z,0.82
2023-08-22T14:04:20.896Z,1.42
2023-08-22T14:06:49.832Z,1.35
2023-08-22T14:09:26.204Z,1.40
2023-08-22T14:11:54.157Z,1.30
2023-08-22T14:14:21.063Z,1.00
2023-08-22T14:16:48.375Z,1.30
2023-08-22T14:19:15.086Z,1.05
2023-08-22T14:21:47.667Z,1.17
2023-08-22T14:24:15.315Z,1.07
2023-08-22T14:26:42.152Z,0.88
2023-08-22T14:29:08.829Z,1.45
2023-08-22T14:31:38.615Z,0.93
2023-08-22T14:34:05.365Z,1.10
2023-08-22T14:36:32.085Z,1.10
2023-08-22T14:38:59.004Z,1.73
2023-08-22T14:41:25.885Z,1.15
2023-08-22T14:43:54.209Z,1.50
2023-08-22T14:46:21.193Z,1.23
2023-08-22T14:48:48.197Z,1.33
2023-08-22T14:51:19.312Z,1.10
2023-08-22T14:53:46.106Z,0.88
2023-08-22T14:56:13.048Z,1.00
2023-08-22T14:58:50.818Z,1.42
2023-08-22T15:01:20.317Z,1.10
2023-08-22T15:03:48.063Z,1.25
2023-08-22T15:06:15.022Z,1.00
2023-08-22T15:08:42.146Z,1.10
2023-08-22T15:11:09.661Z,1.17
2023-08-22T15:13:36.503Z,0.97
2023-08-22T15:16:03.353Z,1.15
2023-08-22T15:18:30.541Z,1.20
2023-08-22T15:21:00.568Z,1.10
2023-08-22T15:23:29.672Z,1.13
2023-08-22T15:25:57.552Z,1.20
2023-08-22T15:28:25.509Z,1.20
2023-08-22T15:30:59.229Z,1.23
2023-08-22T15:33:29.611Z,1.50
2023-08-22T15:36:00.342Z,1.20
2023-08-22T15:38:35.464Z,1.60
2023-08-22T15:41:03.197Z,1.50
2023-08-22T15:43:40.388Z,1.33
2023-08-22T15:46:07.162Z,1.20
2023-08-22T15:48:33.940Z,1.38
2023-08-22T15:51:00.841Z,1.10
2023-08-22T15:53:27.801Z,0.90
2023-08-22T15:55:54.879Z,1.17
2023-08-22T15:58:21.652Z,1.30
2023-08-22T16:00:48.585Z,1.55
2023-08-22T16:03:15.999Z,1.40
2023-08-22T16:05:42.822Z,1.10
2023-08-22T16:08:09.720Z,1.00
2023-08-22T16:10:36.816Z,1.02
2023-08-22T16:13:03.671Z,1.77
2023-08-22T16:15:31.787Z,1.50
2023-08-22T16:17:58.879Z,1.25
2023-08-22T16:20:26.346Z,1.00
2023-08-22T16:22:53.139Z,1.25
2023-08-22T16:25:19.806Z,1.27
2023-08-22T16:27:46.846Z,1.60
2023-08-22T16:30:14.397Z,1.15
2023-08-22T16:32:41.320Z,1.42
2023-08-22T16:35:08.418Z,1.10
2023-08-22T16:37:35.203Z,1.00
2023-08-22T16:40:01.925Z,1.20
2023-08-22T16:42:28.891Z,1.10
2023-08-22T16:44:55.572Z,1.30
2023-08-22T16:47:22.205Z,0.90
2023-08-22T16:49:49.020Z,1.38
2023-08-22T16:52:15.682Z,1.90
2023-08-22T16:54:42.627Z,1.40
2023-08-22T16:57:09.758Z,1.63
2023-08-22T16:59:36.936Z,1.98
2023-08-22T17:02:04.230Z,2.00
2023-08-22T17:04:30.877Z,1.73
2023-08-22T17:06:57.738Z,1.90
2023-08-22T17:09:24.479Z,2.20
2023-08-22T17:11:51.197Z,1.95
2023-08-22T17:14:18.521Z,1.90
2023-08-22T17:16:45.288Z,2.10
2023-08-22T17:19:13.336Z,1.60
2023-08-22T17:21:40.739Z,1.67
2023-08-22T17:24:07.592Z,1.30
2023-08-22T17:26:34.448Z,1.20
2023-08-22T17:29:04.167Z,0.90
2023-08-22T17:31:31.672Z,1.00
2023-08-22T17:33:58.293Z,1.13
2023-08-22T17:36:24.964Z,0.90
2023-08-22T17:38:52.206Z,0.90
2023-08-22T17:41:19.162Z,0.70
2023-08-22T17:43:45.855Z,1.23
2023-08-22T17:46:14.282Z,0.90
2023-08-22T17:48:41.200Z,0.90
2023-08-22T17:51:07.880Z,1.08
2023-08-22T17:53:34.634Z,1.60
2023-08-22T17:56:01.300Z,0.90
2023-08-22T17:58:28.080Z,1.30
2023-08-22T18:00:54.719Z,1.23
2023-08-22T18:03:21.856Z,1.17
2023-08-22T18:05:57.746Z,1.10
2023-08-22T18:08:25.716Z,1.35
2023-08-22T18:10:53.902Z,1.25
2023-08-22T18:13:21.325Z,1.10
2023-08-22T18:18:31.241Z,1.27
2023-08-22T18:21:05.873Z,1.20
2023-08-22T18:23:32.959Z,1.67
2023-08-22T18:26:03.572Z,1.35
2023-08-22T18:28:32.802Z,1.40
2023-08-22T18:31:01.911Z,1.40
2023-08-22T18:33:29.137Z,1.48
2023-08-22T18:35:56.415Z,1.33
2023-08-22T18:38:23.180Z,1.38
2023-08-22T18:40:56.012Z,1.85
2023-08-22T18:43:22.795Z,1.33
2023-08-22T18:45:50.273Z,1.60
2023-08-22T18:48:18.412Z,1.55
2023-08-22T18:50:46.942Z,1.73
2023-08-22T18:53:15.560Z,1.52
2023-08-22T18:55:42.299Z,1.43
2023-08-22T18:58:08.955Z,1.17
2023-08-22T19:00:35.792Z,1.50
2023-08-22T19:03:02.670Z,1.30
2023-08-22T19:05:29.501Z,1.38
2023-08-22T19:07:56.236Z,1.10
2023-08-22T19:10:23.028Z,1.40
2023-08-22T19:12:49.707Z,1.42
2023-08-22T19:15:16.544Z,1.42
2023-08-22T19:17:43.916Z,1.20
2023-08-22T19:20:11.644Z,1.27
2023-08-22T19:22:41.313Z,1.23
2023-08-22T19:25:08.520Z,1.90
2023-08-22T19:27:37.727Z,1.80
2023-08-22T19:30:04.988Z,1.08
2023-08-22T19:32:48.247Z,1.17
2023-08-22T19:35:18.626Z,1.50
2023-08-22T19:37:45.940Z,1.40
2023-08-22T19:40:14.316Z,1.05
2023-08-22T19:42:41.088Z,1.80
2023-08-22T19:45:09.099Z,1.50
2023-08-22T19:47:38.493Z,1.60
2023-08-22T19:50:05.827Z,1.90
2023-08-22T19:52:32.823Z,1.58
2023-08-22T19:55:00.275Z,1.48
2023-08-22T19:57:30.005Z,1.53
2023-08-22T19:59:57.919Z,1.50
2023-08-22T20:02:25.325Z,2.08
2023-08-22T20:04:52.359Z,1.60
2023-08-22T20:07:19.093Z,1.50
2023-08-22T20:09:45.920Z,1.60
2023-08-22T20:12:12.664Z,1.50
2023-08-22T20:14:41.077Z,1.73
2023-08-22T20:17:08.801Z,1.90
2023-08-22T20:19:35.498Z,2.00
2023-08-22T20:22:02.498Z,1.73
2023-08-22T20:24:29.192Z,2.00
2023-08-22T20:27:02.940Z,1.90
2023-08-22T20:29:30.327Z,3.65
2023-08-22T20:31:57.687Z,2.78
2023-08-22T20:34:27.729Z,3.40
2023-08-22T20:36:54.257Z,2.20
2023-08-22T20:39:21.311Z,2.50
2023-08-22T20:41:48.396Z,2.25
2023-08-22T20:44:15.195Z,2.60
2023-08-22T20:46:42.101Z,2.20
2023-08-22T20:49:08.826Z,2.60
2023-08-22T20:51:36.474Z,2.60
2023-08-22T20:54:03.186Z,2.10
2023-08-22T20:56:29.940Z,2.83
2023-08-22T20:58:57.791Z,2.30
2023-08-22T21:01:24.728Z,2.30
2023-08-22T21:03:51.540Z,2.78
2023-08-22T21:06:18.314Z,2.67
2023-08-22T21:08:45.966Z,3.20
2023-08-22T21:11:12.565Z,2.60
2023-08-22T21:13:39.547Z,2.20
2023-08-22T21:16:06.420Z,2.88
2023-08-22T21:18:34.099Z,2.30
2023-08-22T21:21:01.365Z,2.17
2023-08-22T21:23:28.437Z,2.50
2023-08-22T21:25:58.548Z,2.00
2023-08-22T21:28:25.236Z,2.42
2023-08-22T21:30:52.613Z,2.05
2023-08-22T21:33:19.699Z,2.00
2023-08-22T21:35:47.705Z,1.90
2023-08-22T21:38:14.441Z,2.17
2023-08-22T21:40:48.057Z,2.22
2023-08-22T21:43:15.451Z,2.17
2023-08-22T21:45:43.232Z,2.25
2023-08-22T21:48:10.180Z,2.10
2023-08-22T21:50:37.150Z,1.80
2023-08-22T21:53:03.798Z,2.00
2023-08-22T21:55:30.579Z,1.90
2023-08-22T21:57:57.430Z,2.20
2023-08-22T22:00:24.199Z,1.70
2023-08-22T22:02:51.489Z,2.20
2023-08-22T22:05:18.541Z,2.10
2023-08-22T22:07:46.730Z,1.85
2023-08-22T22:10:13.616Z,1.60
2023-08-22T22:12:40.208Z,1.60
2023-08-22T22:15:07.255Z,1.50
2023-08-22T22:17:33.796Z,1.60
2023-08-22T22:20:00.567Z,2.35
2023-08-22T22:22:27.390Z,1.90
2023-08-22T22:24:54.022Z,1.67
2023-08-22T22:27:20.705Z,1.70
2023-08-22T22:29:47.506Z,1.45
2023-08-22T22:32:14.516Z,1.80
2023-08-22T22:34:41.125Z,1.92
2023-08-22T22:37:09.158Z,1.80
2023-08-22T22:39:35.783Z,1.92
2023-08-22T22:42:02.475Z,1.55
2023-08-22T22:44:29.357Z,1.90
2023-08-22T22:46:56.353Z,1.50
2023-08-22T22:49:23.039Z,1.90
2023-08-22T22:51:49.639Z,1.60
2023-08-22T22:54:16.444Z,1.85
2023-08-22T22:56:43.231Z,1.67
2023-08-22T22:59:09.848Z,2.00
2023-08-22T23:01:36.545Z,1.60
2023-08-22T23:04:03.916Z,2.05
2023-08-22T23:06:30.581Z,1.80
2023-08-22T23:08:57.321Z,1.60
2023-08-22T23:11:29.152Z,1.80
2023-08-22T23:14:10.468Z,1.53
2023-08-22T23:16:37.210Z,1.70
2023-08-22T23:19:04.003Z,1.65
2023-08-22T23:21:30.703Z,2.72
2023-08-22T23:23:57.526Z,1.50
2023-08-22T23:26:24.395Z,3.00
2023-08-22T23:28:51.013Z,1.83
2023-08-22T23:31:17.727Z,1.50
2023-08-22T23:33:44.262Z,1.60
2023-08-22T23:36:11.198Z,1.50
2023-08-22T23:38:38.353Z,1.73
2023-08-22T23:41:04.963Z,2.08
2023-08-22T23:43:31.620Z,1.88
2023-08-22T23:45:58.362Z,1.60
2023-08-22T23:48:24.980Z,2.10
2023-08-22T23:50:52.517Z,1.77
2023-08-22T23:53:21.880Z,1.35
2023-08-22T23:55:48.665Z,1.20
2023-08-22T23:58:15.330Z,1.65
